Nickel Mines, Pennsylvania
Current Conditions -  °F | °C
As of 1:15 AM on Monday 26 Jan 2015 (Local Time) from KMQS Reporting Station
Light Snow Light Snow  
Wind Chill: 23°   Ceiling: 100
Heat Index: 30°   Visibility: 1.2mi
Dew Point: 30°   Wind: 8mph
Humidity: 100%   Direction: 60°ENE
Pressure: 29.89"   Gusts: 16mph
Location:  39.9757°N, 76.0913°W
Report Text: KMQS 260615Z AUTO 06007G14KT 1 1/4SM -SN OVC001 M01/M01 A2989 RMK AO2
Loading
Personal Weather Stations






























Interactive Weather Map New forecast layout! Learn more

10-Day Weather Forecast

Advertisements
Track Severe Weather on mobile